Time;durP1;ratioP1;P1;durP2;ratioP2;P2;SDS_P1;SDS_P2;PMS_P1;PMS_P2;Temp;Humidity;BMP_temperature;BMP_pressure;BME280_temperature;BME280_humidity;BME280_pressure;Samples;Min_cycle;Max_cycle;Signal;HPM_P1;HPM_P2
2022/01/26 00:06:06;;;;;;;84.95;41.98;;;;;;;-2.99;100.00;99646.18;1764193;80;21079;-67
2022/01/26 00:08:28;;;;;;;85.03;42.50;;;;;;;-2.98;100.00;99643.02;1759650;81;20995;-66
2022/01/26 00:10:55;;;;;;;81.42;40.08;;;;;;;-2.96;100.00;99649.80;1758922;80;21026;-66
2022/01/26 00:13:21;;;;;;;81.20;41.13;;;;;;;-2.98;100.00;99643.84;1760955;81;20935;-67
2022/01/26 00:15:48;;;;;;;;;;;;;;;-3.00;100.00;99644.52;1763837;80;21062;-67
2022/01/26 00:18:15;;;;;;;80.62;38.95;;;;;;;-3.01;100.00;99641.53;1759186;81;20117;-67
2022/01/26 00:20:51;;;;;;;83.60;40.00;;;;;;;-3.03;100.00;99642.23;1760395;80;21033;-68
2022/01/26 00:23:48;;;;;;;84.58;41.75;;;;;;;-3.03;100.00;99640.91;1758678;81;20963;-67
2022/01/26 00:26:17;;;;;;;77.58;39.42;;;;;;;-2.99;100.00;99636.03;1756962;80;21535;-67
2022/01/26 00:39:16;;;;;;;91.15;44.85;;;;;;;-2.96;100.00;99625.83;1761172;81;21073;-67
2022/01/26 00:41:45;;;;;;;82.27;41.63;;;;;;;-2.99;100.00;99622.72;1760068;80;21050;-68
2022/01/26 00:44:11;;;;;;;82.88;40.05;;;;;;;-3.00;100.00;99625.88;1760417;81;21085;-68
2022/01/26 00:46:41;;;;;;;91.65;43.73;;;;;;;-2.99;100.00;99617.39;1760774;80;21122;-68
2022/01/26 00:49:06;;;;;;;82.57;41.02;;;;;;;-2.97;100.00;99608.19;1754733;81;21939;-68
2022/01/26 00:51:33;;;;;;;92.40;45.73;;;;;;;-2.97;100.00;99610.84;1759159;80;21118;-68
2022/01/26 00:54:05;;;;;;;91.80;44.35;;;;;;;-2.95;100.00;99610.17;1760202;81;21074;-68
2022/01/26 00:56:28;;;;;;;92.75;44.80;;;;;;;-2.95;100.00;99611.51;1754282;80;21087;-68
2022/01/26 00:58:55;;;;;;;84.83;41.42;;;;;;;-2.98;100.00;99610.55;1758327;81;21061;-68
2022/01/26 01:01:21;;;;;;;87.60;44.23;;;;;;;-2.97;100.00;99612.69;1729570;80;21082;-68
2022/01/26 01:03:48;;;;;;;80.97;41.98;;;;;;;-2.98;100.00;99606.56;1747985;81;21703;-68
2022/01/26 01:06:23;;;;;;;84.70;41.90;;;;;;;-3.00;100.00;99601.91;1747256;81;21636;-68
2022/01/26 01:08:45;;;;;;;78.22;39.48;;;;;;;-2.99;100.00;99600.08;1746611;82;21046;-68
2022/01/26 01:11:13;;;;;;;74.85;38.15;;;;;;;-3.04;100.00;99592.64;1747418;81;20999;-68
2022/01/26 01:13:41;;;;;;;75.00;38.90;;;;;;;-2.98;100.00;99594.58;1746610;81;21009;-68
2022/01/26 01:16:13;;;;;;;79.58;40.25;;;;;;;-2.96;100.00;99594.37;1747009;81;21133;-68
2022/01/26 01:18:47;;;;;;;78.28;38.98;;;;;;;-2.97;100.00;99582.88;1743761;82;21002;-68
2022/01/26 01:24:12;;;;;;;;;;;;;;;-2.94;100.00;99578.51;1724982;83;20986;-68
2022/01/26 01:31:18;;;;;;;77.82;39.67;;;;;;;-2.95;100.00;99576.05;1746644;81;21031;-69
2022/01/26 01:33:45;;;;;;;71.92;37.58;;;;;;;-2.94;100.00;99567.05;1746872;81;21322;-68
2022/01/26 01:36:11;;;;;;;68.52;36.77;;;;;;;-2.92;100.00;99566.34;1746930;81;21040;-68
2022/01/26 01:38:43;;;;;;;70.50;38.13;;;;;;;-2.90;100.00;99565.64;1741359;82;20987;-68
2022/01/26 01:41:10;;;;;;;71.67;38.70;;;;;;;-2.89;100.00;99566.80;1747234;81;21011;-68
2022/01/26 01:43:37;;;;;;;71.00;37.90;;;;;;;-2.89;100.00;99568.13;1743661;81;21010;-68
2022/01/26 01:46:04;;;;;;;70.10;37.45;;;;;;;-2.89;100.00;99564.13;1744292;81;21549;-68
2022/01/26 01:48:32;;;;;;;67.25;37.63;;;;;;;-2.88;100.00;99555.63;1744930;82;21013;-68
2022/01/26 01:51:04;;;;;;;64.15;34.40;;;;;;;-2.86;100.00;99557.59;1747368;81;21520;-67
2022/01/26 01:53:35;;;;;;;66.92;36.05;;;;;;;-2.84;100.00;99548.91;1745376;81;21042;-68
2022/01/26 01:55:59;;;;;;;72.05;39.38;;;;;;;-2.84;100.00;99544.42;1746261;81;21121;-68
2022/01/26 01:58:26;;;;;;;74.97;38.58;;;;;;;-2.86;100.00;99541.10;1747369;81;21471;-68
2022/01/26 02:00:53;;;;;;;74.47;38.20;;;;;;;-2.88;100.00;99548.47;1747766;81;21060;-68
2022/01/26 02:03:19;;;;;;;68.35;37.48;;;;;;;-2.88;100.00;99547.64;1749476;82;21046;-68
2022/01/26 02:05:46;;;;;;;76.47;38.83;;;;;;;-2.89;100.00;99550.81;1755342;80;21043;-68
2022/01/26 02:08:13;;;;;;;65.80;37.13;;;;;;;-2.87;100.00;99544.77;1755213;81;21063;-68
2022/01/26 02:10:39;;;;;;;76.67;39.42;;;;;;;-2.87;100.00;99549.30;1753161;80;21074;-68
2022/01/26 02:13:15;;;;;;;75.28;39.20;;;;;;;-2.87;100.00;99544.77;1755592;81;21034;-68
2022/01/26 02:15:53;;;;;;;67.75;34.13;;;;;;;-2.86;100.00;99546.43;1754045;80;21027;-68
2022/01/26 02:18:23;;;;;;;73.15;38.55;;;;;;;-2.86;100.00;99538.94;1747710;81;21042;-68
2022/01/26 02:21:01;;;;;;;73.35;37.35;;;;;;;-2.84;100.00;99539.09;1753245;81;21063;-68
2022/01/26 02:53:50;;;;;;;64.95;34.10;;;;;;;-2.75;100.00;99547.76;1754982;81;20976;-69
2022/01/26 02:56:15;;;;;;;65.17;35.00;;;;;;;-2.73;100.00;99551.08;1729262;82;21585;-69
2022/01/26 03:01:21;;;;;;;74.17;38.35;;;;;;;-2.67;100.00;99541.80;1753503;80;21076;-69
2022/01/26 03:03:41;;;;;;;64.07;35.55;;;;;;;-2.63;100.00;99550.24;1753111;81;21015;-69
2022/01/26 03:06:06;;;;;;;71.62;36.77;;;;;;;-2.60;100.00;99535.20;1725894;82;21106;-69
2022/01/26 03:08:37;;;;;;;66.95;37.25;;;;;;;-2.59;100.00;99532.35;1749635;81;21015;-69
2022/01/26 03:11:03;;;;;;;68.30;35.92;;;;;;;-2.56;100.00;99537.30;1752794;80;21614;-69
2022/01/26 03:13:30;;;;;;;71.20;38.05;;;;;;;-2.53;100.00;99534.74;1753012;81;20978;-69
2022/01/26 03:16:09;;;;;;;65.83;36.45;;;;;;;-2.54;100.00;99537.91;1752899;81;21044;-69
2022/01/26 03:18:54;;;;;;;61.80;32.83;;;;;;;-2.54;100.00;99541.08;1753034;81;20983;-69
2022/01/26 03:21:07;;;;;;;67.10;35.03;;;;;;;-2.54;100.00;99536.58;1748893;81;21077;-69
2022/01/26 03:34:19;;;;;;;71.85;38.23;;;;;;;-2.44;100.00;99553.56;1750999;82;20936;-69
2022/01/26 03:36:50;;;;;;;71.62;38.42;;;;;;;-2.43;100.00;99545.06;1754773;80;21038;-69
2022/01/26 03:39:17;;;;;;;68.20;35.70;;;;;;;-2.40;100.00;99548.67;1752767;81;20994;-69
2022/01/26 03:41:50;;;;;;;67.17;36.68;;;;;;;-2.35;100.00;99548.93;1752932;80;21019;-69
2022/01/26 03:44:12;;;;;;;64.53;34.18;;;;;;;-2.33;100.00;99548.22;1746899;81;21415;-69
2022/01/26 03:46:38;;;;;;;58.17;32.78;;;;;;;-2.29;100.00;99554.31;1738980;81;21137;-69
2022/01/26 03:49:05;;;;;;;54.13;29.40;;;;;;;-2.25;100.00;99550.75;1753147;81;21080;-69
2022/01/26 03:51:33;;;;;;;53.05;29.75;;;;;;;-2.19;100.00;99548.63;1751883;81;20991;-69
2022/01/26 03:54:00;;;;;;;52.05;30.25;;;;;;;-2.13;100.00;99551.87;1752958;82;21019;-69
2022/01/26 03:56:27;;;;;;;49.63;28.90;;;;;;;-2.08;100.00;99547.59;1752825;80;21046;-69
2022/01/26 03:58:53;;;;;;;;;;;;;;;-2.03;100.00;99549.17;1755085;81;21511;-69
2022/01/26 04:01:19;;;;;;;50.65;28.87;;;;;;;-2.01;100.00;99548.45;1710815;82;20398;-66
2022/01/26 04:03:46;;;;;;;51.65;29.00;;;;;;;-2.02;100.00;99550.00;1699463;83;21040;-66
2022/01/26 04:06:13;;;;;;;52.73;28.12;;;;;;;-1.98;100.00;99555.23;1720734;82;21059;-66
2022/01/26 04:08:42;;;;;;;54.80;29.40;;;;;;;-1.97;100.00;99552.89;1725927;82;21091;-66
2022/01/26 04:11:24;;;;;;;53.75;28.17;;;;;;;-1.95;100.00;99558.87;1715134;82;21016;-67
2022/01/26 04:13:36;;;;;;;48.80;27.95;;;;;;;-1.91;100.00;99554.77;1711638;83;21504;-68
2022/01/26 04:16:04;;;;;;;51.40;27.87;;;;;;;-1.90;100.00;99555.09;1715742;82;21624;-68
2022/01/26 04:18:35;;;;;;;51.23;28.90;;;;;;;-1.90;100.00;99556.42;1711837;83;21521;-68
2022/01/26 04:21:05;;;;;;;50.55;26.93;;;;;;;-1.90;100.00;99555.09;1713853;82;21138;-68
2022/01/26 04:23:46;;;;;;;45.55;26.57;;;;;;;-1.90;100.00;99557.76;1713240;83;20984;-68
2022/01/26 04:25:56;;;;;;;55.58;30.05;;;;;;;-1.88;100.00;99556.23;1714470;83;21718;-67
2022/01/26 04:28:33;;;;;;;54.45;28.65;;;;;;;-1.85;100.00;99555.84;1704200;83;21478;-67
2022/01/26 04:30:51;;;;;;;51.75;27.42;;;;;;;-1.86;100.00;99561.69;1711546;83;21072;-67
2022/01/26 04:33:17;;;;;;;58.05;29.32;;;;;;;-1.86;100.00;99561.69;1707139;83;20994;-68
2022/01/26 04:35:46;;;;;;;56.80;29.57;;;;;;;-1.86;100.00;99563.02;1715218;82;21080;-67
2022/01/26 04:38:19;;;;;;;53.73;29.00;;;;;;;-1.85;100.00;99562.52;1718166;83;21413;-67
2022/01/26 04:40:56;;;;;;;54.85;29.32;;;;;;;-1.85;100.00;99570.52;1714527;82;21718;-68
2022/01/26 04:43:17;;;;;;;60.35;31.52;;;;;;;-1.85;100.00;99576.68;1712739;83;20993;-68
2022/01/26 04:45:38;;;;;;;56.00;28.10;;;;;;;-1.89;100.00;99559.41;1715923;82;21134;-68
2022/01/26 04:48:04;;;;;;;59.67;31.55;;;;;;;-1.89;100.00;99564.75;1719368;83;21025;-67
2022/01/26 04:50:31;;;;;;;58.28;31.62;;;;;;;-1.91;100.00;99564.64;1710956;83;21487;-67
2022/01/26 04:52:57;;;;;;;;;;;;;;;-1.94;100.00;99563.16;1707918;82;21061;-67
2022/01/26 04:55:24;;;;;;;58.10;28.98;;;;;;;-1.95;100.00;99561.54;1710851;83;20113;-68
2022/01/26 04:57:50;;;;;;;56.45;29.63;;;;;;;-1.96;100.00;99563.05;1706354;83;21039;-68
2022/01/26 05:00:17;;;;;;;57.40;30.23;;;;;;;-1.96;100.00;99575.06;1709929;81;21460;-68
2022/01/26 05:02:44;;;;;;;58.78;30.62;;;;;;;-1.97;100.00;99576.90;1747331;81;21469;-67
2022/01/26 05:05:10;;;;;;;61.15;30.95;;;;;;;-1.95;100.00;99572.72;1747493;81;21020;-67
2022/01/26 05:07:37;;;;;;;;;;;;;;;-1.94;100.00;99577.01;1726070;82;21023;-67
2022/01/26 05:10:05;;;;;;;55.15;29.90;;;;;;;-1.97;100.00;99580.07;1746469;81;20481;-68
2022/01/26 05:12:34;;;;;;;54.53;29.52;;;;;;;-2.02;100.00;99596.69;1747539;82;21046;-68
2022/01/26 05:15:00;;;;;;;55.45;27.75;;;;;;;-2.01;100.00;99586.30;1747309;81;21090;-67
2022/01/26 05:17:28;;;;;;;55.08;29.45;;;;;;;-2.02;100.00;99597.48;1747405;81;21042;-67
2022/01/26 05:19:58;;;;;;;52.60;28.67;;;;;;;-2.10;100.00;99591.48;1744613;82;20984;-67
2022/01/26 05:22:23;;;;;;;55.80;29.57;;;;;;;-2.13;100.00;99590.55;1747316;81;20983;-67
2022/01/26 05:24:49;;;;;;;59.93;31.00;;;;;;;-2.13;100.00;99592.70;1738499;82;21515;-67
2022/01/26 05:27:16;;;;;;;54.45;28.80;;;;;;;-2.12;100.00;99594.84;1727285;81;21607;-68
2022/01/26 05:29:42;;;;;;;56.53;30.43;;;;;;;-2.16;100.00;99593.06;1739728;82;21557;-67
2022/01/26 05:32:09;;;;;;;50.00;27.30;;;;;;;-2.19;100.00;99596.13;1744167;81;21445;-67
2022/01/26 05:34:35;;;;;;;57.65;29.75;;;;;;;-2.20;100.00;99606.50;1747370;82;21071;-67
2022/01/26 05:37:02;;;;;;;50.43;26.42;;;;;;;-2.18;100.00;99604.45;1743491;81;21100;-67
2022/01/26 05:39:32;;;;;;;57.08;29.27;;;;;;;-2.16;100.00;99598.94;1724931;81;21759;-67
2022/01/26 05:42:03;;;;;;;51.75;28.38;;;;;;;-2.18;100.00;99615.12;1737586;81;21061;-67
2022/01/26 05:44:27;;;;;;;55.88;28.80;;;;;;;-2.19;100.00;99611.30;1735120;82;21058;-67
2022/01/26 05:46:53;;;;;;;;;;;;;;;-2.21;100.00;99606.67;1750308;80;21125;-67
2022/01/26 05:49:20;;;;;;;56.00;28.83;;;;;;;-2.26;100.00;99616.58;1744798;82;20180;-68
2022/01/26 05:51:47;;;;;;;58.73;30.52;;;;;;;-2.31;100.00;99616.34;1751428;80;21107;-66
2022/01/26 05:54:15;;;;;;;59.77;30.00;;;;;;;-2.30;100.00;99618.51;1745087;82;20995;-65
2022/01/26 05:56:42;;;;;;;53.90;29.67;;;;;;;-2.31;100.00;99615.02;1744500;81;21570;-65
2022/01/26 05:59:10;;;;;;;51.40;28.12;;;;;;;-2.31;100.00;99617.69;1745270;82;21494;-65
2022/01/26 06:01:36;;;;;;;56.53;29.77;;;;;;;-2.28;100.00;99622.63;1752870;81;21015;-65
2022/01/26 06:04:03;;;;;;;53.63;29.52;;;;;;;-2.27;100.00;99626.13;1757965;81;21028;-65
2022/01/26 06:06:30;;;;;;;51.48;29.63;;;;;;;-2.24;100.00;99628.40;1746498;81;21109;-65
2022/01/26 06:08:57;;;;;;;52.43;29.00;;;;;;;-2.22;100.00;99637.84;1760284;81;21024;-67
2022/01/26 06:11:25;;;;;;;59.75;30.57;;;;;;;-2.22;100.00;99635.69;1760924;80;21095;-66
2022/01/26 06:13:53;;;;;;;50.80;27.42;;;;;;;-2.21;100.00;99640.84;1759631;81;21003;-65
2022/01/26 06:16:20;;;;;;;56.37;30.12;;;;;;;-2.20;100.00;99638.50;1759065;80;21054;-65
2022/01/26 06:18:47;;;;;;;54.18;29.80;;;;;;;-2.19;100.00;99632.63;1760751;81;21075;-66
2022/01/26 06:21:13;;;;;;;51.55;29.52;;;;;;;-2.19;100.00;99639.30;1760061;80;21125;-65
2022/01/26 06:23:40;;;;;;;52.73;28.30;;;;;;;-2.17;100.00;99639.95;1751083;81;21468;-66
2022/01/26 06:26:07;;;;;;;54.20;29.72;;;;;;;-2.13;100.00;99640.72;1757267;80;21528;-64
2022/01/26 06:28:34;;;;;;;52.90;29.20;;;;;;;-2.14;100.00;99641.72;1761226;81;21517;-65
2022/01/26 06:31:09;;;;;;;;;;;;;;;-2.14;100.00;99644.39;1761188;81;21647;-64
2022/01/26 06:33:34;;;;;;;52.05;26.73;;;;;;;-2.15;100.00;99644.56;1756570;81;20114;-65
2022/01/26 06:36:00;;;;;;;53.52;28.52;;;;;;;-2.19;100.00;99650.80;1760365;80;21043;-66
2022/01/26 06:38:30;;;;;;;55.63;29.98;;;;;;;-2.20;100.00;99656.34;1759858;81;20972;-66
2022/01/26 06:40:58;;;;;;;55.50;30.10;;;;;;;-2.15;100.00;99649.91;1760928;80;21581;-66
2022/01/26 06:43:28;;;;;;;59.83;30.40;;;;;;;-2.17;100.00;99651.95;1760992;81;21016;-66
2022/01/26 06:46:02;;;;;;;55.33;29.82;;;;;;;-2.21;100.00;99652.84;1743301;81;21076;-67
2022/01/26 06:48:43;;;;;;;54.13;28.85;;;;;;;-2.21;100.00;99654.67;1731248;81;20999;-66
2022/01/26 06:50:56;;;;;;;53.83;28.02;;;;;;;-2.22;100.00;99646.35;1747706;81;21516;-66
2022/01/26 06:53:22;;;;;;;50.40;26.02;;;;;;;-2.22;100.00;99661.84;1752592;81;20951;-66
2022/01/26 06:55:49;;;;;;;55.17;28.12;;;;;;;-2.20;100.00;99662.50;1758945;80;21111;-65
2022/01/26 06:58:15;;;;;;;53.40;27.80;;;;;;;-2.23;100.00;99663.39;1750482;81;21062;-66
2022/01/26 07:00:42;;;;;;;53.95;26.85;;;;;;;-2.25;100.00;99674.23;1740308;81;21083;-67
2022/01/26 07:03:09;;;;;;;57.03;29.20;;;;;;;-2.27;100.00;99678.12;1740085;82;21112;-66
2022/01/26 07:05:35;;;;;;;;;;;;;;;-2.29;100.00;99674.30;1746689;82;21048;-68
2022/01/26 07:08:02;;;;;;;52.78;26.68;;;;;;;-2.25;100.00;99685.41;1741463;82;20139;-69
2022/01/26 07:10:29;;;;;;;53.58;27.60;;;;;;;-2.26;100.00;99684.58;1752168;81;21173;-68
2022/01/26 07:12:55;;;;;;;47.80;24.95;;;;;;;-2.28;100.00;99687.95;1750724;82;21014;-68
2022/01/26 07:23:28;;;;;;;44.77;24.70;;;;;;;-2.27;100.00;99699.45;1686555;84;21581;-67
2022/01/26 07:25:54;;;;;;;49.93;26.07;;;;;;;-2.31;100.00;99697.67;1744068;80;21081;-67
2022/01/26 07:28:20;;;;;;;48.95;24.77;;;;;;;-2.28;100.00;99699.13;1744569;81;21106;-67
2022/01/26 07:30:47;;;;;;;42.80;23.30;;;;;;;-2.27;100.00;99704.28;1739131;80;21074;-68
2022/01/26 07:33:15;;;;;;;41.28;22.42;;;;;;;-2.26;100.00;99705.91;1748586;81;21588;-68
2022/01/26 07:35:41;;;;;;;36.70;19.85;;;;;;;-2.25;100.00;99704.07;1759079;81;21118;-68
2022/01/26 07:38:08;;;;;;;39.33;22.42;;;;;;;-2.24;100.00;99713.23;1681671;84;21044;-68
2022/01/26 07:40:35;;;;;;;;;;;;;;;-2.25;100.00;99717.41;1752226;80;21062;-66
2022/01/26 07:43:01;;;;;;;39.45;21.25;;;;;;;-2.23;100.00;99718.86;1754307;81;20104;-66
2022/01/26 07:45:28;;;;;;;35.85;19.12;;;;;;;-2.25;100.00;99720.90;1758991;81;21019;-67
2022/01/26 07:47:55;;;;;;;;;;;;;;;-2.23;100.00;99723.39;1707122;84;21056;-67
2022/01/26 07:50:22;;;;;;;24.20;12.30;;;;;;;-2.27;100.00;99728.78;1704819;82;20097;-67
2022/01/26 07:52:49;;;;;;;25.72;13.53;;;;;;;-2.30;100.00;99728.63;1749178;81;20999;-66
2022/01/26 07:55:18;;;;;;;23.47;13.80;;;;;;;-2.28;100.00;99731.95;1731137;80;21037;-66
2022/01/26 07:57:45;;;;;;;23.95;12.25;;;;;;;-2.24;100.00;99727.89;1748757;81;21500;-67
2022/01/26 08:00:12;;;;;;;25.20;14.55;;;;;;;-2.19;100.00;99726.80;1759801;80;20975;-67
2022/01/26 08:02:43;;;;;;;24.98;14.05;;;;;;;-2.12;100.00;99732.19;1754796;81;21489;-67
2022/01/26 08:05:12;;;;;;;23.92;14.00;;;;;;;-2.08;100.00;99734.80;1761830;80;21013;-67
2022/01/26 08:07:40;;;;;;;25.85;14.15;;;;;;;-2.04;100.00;99736.91;1747220;81;21006;-67
2022/01/26 08:10:07;;;;;;;28.38;15.45;;;;;;;-1.94;100.00;99739.75;1770236;80;20972;-66
2022/01/26 08:12:34;;;;;;;27.42;14.87;;;;;;;-1.90;100.00;99732.52;1762235;81;21021;-67
2022/01/26 08:15:01;;;;;;;23.45;13.68;;;;;;;-1.89;100.00;99744.02;1768352;80;21060;-67
2022/01/26 08:17:29;;;;;;;27.37;14.18;;;;;;;-1.90;100.00;99741.02;1760997;81;21067;-67
2022/01/26 08:19:56;;;;;;;24.47;14.43;;;;;;;-1.86;100.00;99745.80;1768134;81;21006;-67
2022/01/26 08:22:26;;;;;;;23.32;13.50;;;;;;;-1.81;100.00;99744.72;1761817;81;21097;-67
2022/01/26 08:24:53;;;;;;;25.52;14.40;;;;;;;-1.73;100.00;99753.08;1736993;81;21623;-66
2022/01/26 08:27:22;;;;;;;24.30;13.30;;;;;;;-1.69;100.00;99747.17;1755093;80;21048;-66
2022/01/26 08:29:52;;;;;;;23.73;12.60;;;;;;;-1.67;100.00;99749.16;1763903;81;21035;-66
2022/01/26 08:32:16;;;;;;;24.67;14.03;;;;;;;-1.62;100.00;99752.56;1749910;80;21068;-66
2022/01/26 08:34:43;;;;;;;26.20;13.98;;;;;;;-1.55;100.00;99757.44;1702399;83;20951;-66
2022/01/26 08:37:09;;;;;;;24.23;13.83;;;;;;;-1.53;100.00;99748.75;1688520;84;21160;-66
2022/01/26 08:39:36;;;;;;;27.13;14.33;;;;;;;-1.41;100.00;99758.36;1685501;83;21046;-66
2022/01/26 08:42:05;;;;;;;24.40;14.00;;;;;;;-1.35;100.00;99762.95;1707321;83;21063;-66
2022/01/26 08:44:33;;;;;;;22.35;12.95;;;;;;;-1.27;100.00;99756.10;1707295;83;20984;-66
2022/01/26 08:47:01;;;;;;;18.92;12.55;;;;;;;-1.21;100.00;99752.67;1689855;83;21070;-66
2022/01/26 08:49:29;;;;;;;23.90;13.62;;;;;;;-1.11;100.00;99761.98;1705283;83;21550;-66
2022/01/26 08:51:56;;;;;;;27.75;14.33;;;;;;;-1.03;100.00;99756.47;1695752;83;21101;-66
2022/01/26 08:54:23;;;;;;;26.75;14.43;;;;;;;-0.96;100.00;99756.53;1702523;84;20975;-66
2022/01/26 08:56:50;;;;;;;26.62;14.10;;;;;;;-0.91;100.00;99757.25;1693682;84;21063;-66
2022/01/26 08:59:19;;;;;;;24.70;13.80;;;;;;;-0.93;100.00;99749.95;1696647;84;21012;-66
2022/01/26 09:01:46;;;;;;;24.92;14.87;;;;;;;-0.95;100.00;99758.16;1694785;83;21047;-66
2022/01/26 09:04:13;;;;;;;25.02;14.43;;;;;;;-1.01;100.00;99767.80;1693777;84;21011;-66
2022/01/26 09:06:50;;;;;;;26.65;14.73;;;;;;;-0.95;100.00;99755.99;1662521;85;21078;-66
2022/01/26 09:09:09;;;;;;;24.10;14.63;;;;;;;-0.89;100.00;99758.73;1698121;84;20971;-66
2022/01/26 09:11:37;;;;;;;19.55;11.90;;;;;;;-0.85;100.00;99757.28;1695678;83;21091;-66
2022/01/26 09:14:08;;;;;;;22.65;13.68;;;;;;;-0.79;100.00;99754.34;1702817;83;20999;-66
2022/01/26 09:16:32;;;;;;;25.10;13.90;;;;;;;-0.75;100.00;99758.28;1691374;83;21645;-66
2022/01/26 09:19:05;;;;;;;22.27;13.05;;;;;;;-0.76;100.00;99760.62;1699420;83;21498;-66
2022/01/26 09:21:26;;;;;;;24.02;13.28;;;;;;;-0.78;100.00;99763.48;1668613;84;21079;-66
2022/01/26 09:23:53;;;;;;;21.73;13.30;;;;;;;-0.78;100.00;99758.69;1703262;83;21025;-66
2022/01/26 09:26:19;;;;;;;;;;;;;;;-0.78;100.00;99762.15;1698505;83;21066;-66
2022/01/26 09:28:46;;;;;;;20.72;11.20;;;;;;;-0.85;100.00;99765.30;1689864;83;20142;-66
2022/01/26 09:31:13;;;;;;;23.38;13.15;;;;;;;-1.01;100.00;99766.47;1698352;83;21161;-65
2022/01/26 09:33:39;;;;;;;20.30;12.82;;;;;;;-1.08;100.00;99760.25;1699637;84;21050;-64
2022/01/26 09:36:07;;;;;;;27.17;14.03;;;;;;;-1.08;100.00;99767.44;1681336;84;21074;-65
2022/01/26 09:38:34;;;;;;;22.50;13.15;;;;;;;-1.11;100.00;99753.14;1694486;84;20984;-66
2022/01/26 09:41:00;;;;;;;24.02;13.90;;;;;;;-1.09;100.00;99765.27;1703589;83;21118;-65
2022/01/26 09:43:27;;;;;;;23.18;13.08;;;;;;;-1.07;100.00;99759.24;1701535;83;21026;-64
2022/01/26 09:45:54;;;;;;;22.95;13.50;;;;;;;-1.02;100.00;99766.14;1701402;83;21554;-64
2022/01/26 09:48:20;;;;;;;22.90;13.62;;;;;;;-1.03;100.00;99761.02;1700720;83;20967;-65
2022/01/26 09:50:53;;;;;;;20.80;12.58;;;;;;;-1.01;100.00;99761.12;1700389;83;21071;-65
2022/01/26 09:53:20;;;;;;;24.23;12.60;;;;;;;-0.89;100.00;99760.57;1615724;87;21031;-65
2022/01/26 09:55:46;;;;;;;22.15;12.23;;;;;;;-0.83;100.00;99759.77;1691398;83;21093;-66
2022/01/26 09:58:15;;;;;;;25.77;14.25;;;;;;;-0.88;100.00;99763.53;1691225;84;21059;-65
2022/01/26 10:00:41;;;;;;;24.63;11.75;;;;;;;-0.90;100.00;99761.59;1688819;83;21543;-65
2022/01/26 10:03:07;;;;;;;21.97;11.55;;;;;;;-0.93;100.00;99761.98;1721551;81;21524;-65
2022/01/26 10:05:42;;;;;;;20.43;12.10;;;;;;;-0.92;100.00;99759.09;1732642;81;21056;-63
2022/01/26 10:08:23;;;;;;;20.95;11.88;;;;;;;-0.85;100.00;99759.95;1737573;82;21061;-64
2022/01/26 10:18:35;;;;;;;21.23;11.15;;;;;;;-0.81;100.00;99757.20;1747980;82;21016;-65
2022/01/26 10:21:03;;;;;;;;;;;;;;;-0.70;100.00;99764.67;1746591;81;21062;-63
2022/01/26 10:23:38;;;;;;;;;;;;;;;-0.61;100.00;99759.98;1739758;82;20446;-63
2022/01/26 10:26:13;;;;;;;18.12;10.65;;;;;;;-0.64;100.00;99765.20;1744270;81;20151;-62
2022/01/26 10:28:52;;;;;;;17.87;10.30;;;;;;;-0.70;100.00;99760.66;1742791;81;21494;-63
2022/01/26 10:31:32;;;;;;;17.70;10.43;;;;;;;-0.58;100.00;99764.42;1742209;81;21050;-65
2022/01/26 10:34:15;;;;;;;19.62;10.50;;;;;;;-0.41;100.00;99758.21;1745362;82;21457;-62
2022/01/26 10:36:51;;;;;;;17.62;11.10;;;;;;;-0.27;100.00;99763.09;1744793;81;21540;-64
2022/01/26 10:39:29;;;;;;;18.75;10.85;;;;;;;-0.26;100.00;99756.72;1731294;82;20996;-64
2022/01/26 10:42:00;;;;;;;16.65;9.03;;;;;;;-0.12;100.00;99757.06;1746924;81;21068;-63
2022/01/26 10:44:44;;;;;;;18.60;9.25;;;;;;;0.04;100.00;99756.67;1732997;82;20976;-65
2022/01/26 10:47:06;;;;;;;16.12;9.08;;;;;;;0.04;100.00;99754.53;1735853;81;21648;-62
2022/01/26 10:54:51;;;;;;;16.52;10.23;;;;;;;-0.12;100.00;99747.70;1745564;81;20931;-63
2022/01/26 10:57:18;;;;;;;19.45;10.13;;;;;;;-0.15;100.00;99749.45;1743964;81;21095;-62
2022/01/26 10:59:48;;;;;;;;;;;;;;;-0.15;100.00;99744.92;1743867;82;21466;-62
2022/01/26 11:02:26;;;;;;;12.00;7.12;;;;;;;-0.13;100.00;99750.88;1734953;81;20412;-62
2022/01/26 11:04:49;;;;;;;12.98;6.75;;;;;;;-0.24;100.00;99750.64;1705761;83;21483;-62
2022/01/26 11:07:16;;;;;;;12.55;6.60;;;;;;;-0.31;100.00;99752.47;1718688;82;21628;-62
2022/01/26 11:09:47;;;;;;;13.20;6.95;;;;;;;-0.40;100.00;99754.52;1717143;82;21644;-62
2022/01/26 11:12:19;;;;;;;12.00;7.22;;;;;;;-0.46;100.00;99755.84;1714932;81;21718;-63
2022/01/26 11:14:57;;;;;;;12.80;6.92;;;;;;;-0.41;100.00;99749.36;1712806;82;20995;-63
2022/01/26 11:17:34;;;;;;;14.70;7.08;;;;;;;-0.35;100.00;99752.55;1670062;84;21550;-62
2022/01/26 11:20:01;;;;;;;11.75;6.10;;;;;;;-0.39;100.00;99755.34;1696387;83;21074;-63
2022/01/26 11:22:31;;;;;;;13.30;6.78;;;;;;;-0.46;100.00;99748.61;1709988;82;21075;-62
2022/01/26 11:25:09;;;;;;;14.05;6.97;;;;;;;-0.55;100.00;99756.00;1726934;82;21074;-64
2022/01/26 11:27:38;;;;;;;13.00;6.83;;;;;;;-0.60;100.00;99751.75;1712900;82;21019;-63
2022/01/26 11:30:26;;;;;;;12.58;7.03;;;;;;;-0.66;100.00;99762.42;1730356;82;20977;-63
2022/01/26 11:33:01;;;;;;;12.73;7.00;;;;;;;-0.75;100.00;99764.97;1708211;82;21410;-63
2022/01/26 11:35:32;;;;;;;12.53;6.33;;;;;;;-0.80;100.00;99758.86;1720070;82;21521;-63
2022/01/26 11:38:27;;;;;;;14.50;6.37;;;;;;;-0.84;100.00;99754.94;1712492;82;21047;-64
2022/01/26 11:46:27;;;;;;;17.12;7.08;;;;;;;-0.87;100.00;99759.34;1641741;84;21077;-63
2022/01/26 11:49:06;;;;;;;12.13;6.83;;;;;;;-0.80;100.00;99751.35;1679668;85;21481;-63
2022/01/26 11:51:48;;;;;;;13.32;6.58;;;;;;;-0.74;100.00;99744.70;1673582;85;21116;-63
2022/01/26 11:54:25;;;;;;;13.90;6.85;;;;;;;-0.71;100.00;99744.30;1655372;86;20977;-63
2022/01/26 11:57:09;;;;;;;14.47;7.12;;;;;;;-0.72;100.00;99745.34;1660278;85;21535;-63
2022/01/26 11:59:41;;;;;;;14.58;7.58;;;;;;;-0.73;100.00;99752.21;1660463;84;20967;-63
2022/01/26 12:02:14;;;;;;;14.33;8.03;;;;;;;-0.72;100.00;99750.69;1661028;85;21043;-63
2022/01/26 12:04:36;;;;;;;12.88;7.12;;;;;;;-0.68;100.00;99748.44;1697003;84;21008;-63
2022/01/26 12:07:22;;;;;;;16.55;7.75;;;;;;;-0.65;100.00;99750.20;1718509;81;21050;-63
2022/01/26 12:09:40;;;;;;;13.43;6.92;;;;;;;-0.70;100.00;99753.14;1747867;81;20972;-63
2022/01/26 12:12:10;;;;;;;17.20;7.85;;;;;;;-0.79;100.00;99755.69;1757340;80;21063;-63
2022/01/26 12:14:37;;;;;;;17.25;7.90;;;;;;;-0.83;100.00;99762.45;1757578;81;20960;-64
2022/01/26 12:42:13;;;;;;;12.82;6.00;;;;;;;-0.76;100.00;99775.33;1760667;81;21067;-65
2022/01/26 12:44:40;;;;;;;12.63;5.92;;;;;;;-0.74;100.00;99765.25;1753853;81;21518;-66
2022/01/26 12:47:06;;;;;;;11.80;6.08;;;;;;;-0.71;100.00;99771.56;1760665;81;21564;-65
2022/01/26 12:49:33;;;;;;;10.38;5.08;;;;;;;-0.70;100.00;99771.34;1759739;80;21540;-65
2022/01/26 12:51:59;;;;;;;11.75;5.72;;;;;;;-0.71;100.00;99782.26;1761065;81;21026;-66
2022/01/26 12:54:26;;;;;;;11.83;5.78;;;;;;;-0.70;100.00;99781.22;1707753;81;21465;-66
2022/01/26 12:57:06;;;;;;;10.23;5.55;;;;;;;-0.72;100.00;99781.94;1758982;81;21081;-66
2022/01/26 12:59:32;;;;;;;10.88;5.78;;;;;;;-0.73;100.00;99785.12;1760681;80;21032;-65
2022/01/26 13:01:59;;;;;;;11.78;5.33;;;;;;;-0.74;100.00;99786.64;1761196;81;21063;-66
2022/01/26 13:04:26;;;;;;;;;;;;;;;-0.76;100.00;99784.19;1763787;80;21544;-66
2022/01/26 13:06:53;;;;;;;12.83;5.70;;;;;;;-0.79;100.00;99780.57;1761247;81;20436;-66
2022/01/26 13:09:26;;;;;;;10.53;5.10;;;;;;;-0.86;100.00;99779.71;1761141;80;21742;-66
2022/01/26 13:11:57;;;;;;;9.40;5.03;;;;;;;-0.85;100.00;99776.53;1761238;81;21050;-65
2022/01/26 13:14:39;;;;;;;10.38;5.50;;;;;;;-0.85;100.00;99787.22;1744248;81;21063;-65
2022/01/26 13:26:13;;;;;;;13.80;6.22;;;;;;;-0.96;100.00;99783.25;1753852;82;20979;-65
2022/01/26 13:34:27;;;;;;;12.53;6.50;;;;;;;-1.05;100.00;99794.59;1735473;82;21055;-66